createdAt,value
2018-01-20T00:02:26.369Z,9.10
2018-01-20T00:04:53.816Z,4.77
2018-01-20T00:07:21.492Z,4.37
2018-01-20T00:10:00.877Z,6.10
2018-01-20T00:12:28.340Z,3.80
2018-01-20T00:14:55.783Z,6.20
2018-01-20T00:17:23.228Z,4.80
2018-01-20T00:19:50.713Z,3.50
2018-01-20T00:22:25.018Z,6.40
2018-01-20T00:24:58.157Z,2.80
2018-01-20T00:27:25.613Z,2.57
2018-01-20T00:29:53.062Z,3.60
2018-01-20T00:32:20.522Z,2.87
2018-01-20T00:34:47.960Z,3.50
2018-01-20T00:37:15.452Z,3.30
2018-01-20T00:39:42.985Z,3.57
2018-01-20T00:42:10.465Z,4.17
2018-01-20T00:44:37.948Z,2.87
2018-01-20T00:47:05.399Z,3.70
2018-01-20T00:49:33.237Z,4.10
2018-01-20T00:52:00.677Z,2.63
2018-01-20T00:54:28.121Z,2.27
2018-01-20T00:56:55.584Z,2.53
2018-01-20T00:59:23.022Z,1.97
2018-01-20T01:01:50.592Z,2.20
2018-01-20T01:04:18.034Z,5.20
2018-01-20T01:06:45.477Z,3.20
2018-01-20T01:09:12.956Z,5.33
2018-01-20T01:11:40.402Z,2.30
2018-01-20T01:14:07.869Z,2.83
2018-01-20T01:16:35.308Z,4.20
2018-01-20T01:19:02.745Z,1.60
2018-01-20T01:21:30.231Z,2.67
2018-01-20T01:23:57.675Z,2.83
2018-01-20T01:26:25.161Z,2.30
2018-01-20T01:28:52.596Z,3.33
2018-01-20T01:31:20.033Z,1.30
2018-01-20T01:33:47.489Z,2.20
2018-01-20T01:36:14.932Z,3.07
2018-01-20T01:38:42.549Z,3.33
2018-01-20T01:41:09.986Z,1.40
2018-01-20T01:43:37.430Z,2.37
2018-01-20T01:46:04.886Z,2.33
2018-01-20T01:48:32.328Z,1.57
2018-01-20T01:50:59.851Z,2.37
2018-01-20T01:53:27.287Z,3.57
2018-01-20T01:55:54.733Z,2.27
2018-01-20T01:58:22.197Z,2.33
2018-01-20T02:00:49.635Z,8.57
2018-01-20T02:03:17.353Z,3.10
2018-01-20T02:05:44.792Z,2.40
2018-01-20T02:08:12.228Z,2.40
2018-01-20T02:10:39.684Z,2.40
2018-01-20T02:13:07.656Z,3.20
2018-01-20T02:15:35.136Z,1.73
2018-01-20T02:18:02.577Z,1.60
2018-01-20T02:20:30.041Z,2.37
2018-01-20T02:22:58.134Z,4.13
2018-01-20T02:25:25.803Z,3.40
2018-01-20T02:27:53.260Z,2.10
2018-01-20T02:30:20.709Z,4.23
2018-01-20T02:32:48.148Z,2.13
2018-01-20T02:35:15.604Z,1.60
2018-01-20T02:37:43.037Z,2.20
2018-01-20T02:40:10.844Z,1.80
2018-01-20T02:42:38.309Z,2.50
2018-01-20T02:45:05.740Z,1.67
2018-01-20T02:47:33.224Z,1.77
2018-01-20T02:50:00.657Z,2.67
2018-01-20T02:52:28.433Z,1.80
2018-01-20T02:54:55.875Z,1.80
2018-01-20T02:57:23.321Z,1.57
2018-01-20T02:59:50.778Z,1.80
2018-01-20T03:02:18.228Z,1.47
2018-01-20T03:04:45.697Z,1.40
2018-01-20T03:07:13.134Z,1.50
2018-01-20T03:09:40.570Z,1.67
2018-01-20T03:12:08.037Z,1.30
2018-01-20T03:14:35.483Z,1.67
2018-01-20T03:17:03.037Z,2.13
2018-01-20T03:19:30.481Z,0.90
2018-01-20T03:21:57.913Z,1.13
2018-01-20T03:24:25.381Z,1.30
2018-01-20T03:26:52.848Z,1.33
2018-01-20T03:29:20.314Z,3.27
2018-01-20T03:31:47.749Z,1.07
2018-01-20T03:34:15.181Z,0.97
2018-01-20T03:36:42.637Z,0.73
2018-01-20T03:39:10.073Z,0.90
2018-01-20T03:41:37.846Z,2.13
2018-01-20T03:44:05.276Z,0.77
2018-01-20T03:46:32.710Z,0.77
2018-01-20T03:49:00.169Z,1.03
2018-01-20T03:51:27.606Z,0.63
2018-01-20T03:53:55.368Z,1.23
2018-01-20T03:56:22.837Z,0.80
2018-01-20T03:58:50.260Z,1.13
2018-01-20T04:01:17.728Z,0.80
2018-01-20T04:03:45.165Z,1.40
2018-01-20T04:06:12.820Z,0.60
2018-01-20T04:08:40.259Z,0.77
2018-01-20T04:11:07.716Z,1.10
2018-01-20T04:13:35.186Z,0.83
2018-01-20T04:16:02.640Z,0.70
2018-01-20T04:18:30.205Z,0.80
2018-01-20T04:20:57.649Z,0.70
2018-01-20T04:23:25.106Z,0.93
2018-01-20T04:25:52.562Z,1.00
2018-01-20T04:28:19.992Z,0.80
2018-01-20T04:30:47.801Z,1.10
2018-01-20T04:33:15.257Z,0.90
2018-01-20T04:35:42.703Z,0.90
2018-01-20T04:38:10.223Z,0.90
2018-01-20T04:40:37.653Z,0.73
2018-01-20T04:43:05.283Z,1.20
2018-01-20T04:45:32.716Z,0.70
2018-01-20T04:48:00.160Z,1.03
2018-01-20T04:50:27.644Z,1.00
2018-01-20T04:52:55.077Z,1.00
2018-01-20T04:55:22.565Z,0.70
2018-01-20T04:57:50.026Z,0.70
2018-01-20T05:00:17.543Z,1.33
2018-01-20T05:02:45.013Z,0.93
2018-01-20T05:05:12.447Z,0.70
2018-01-20T05:07:39.933Z,2.60
2018-01-20T05:10:07.364Z,3.43
2018-01-20T05:12:34.829Z,1.20
2018-01-20T05:15:02.289Z,0.70
2018-01-20T05:17:29.729Z,0.97
2018-01-20T05:19:57.209Z,1.30
2018-01-20T05:22:24.643Z,1.30
2018-01-20T05:24:52.072Z,1.37
2018-01-20T05:27:19.536Z,1.17
2018-01-20T05:29:46.973Z,1.40
2018-01-20T05:32:14.473Z,4.30
2018-01-20T05:34:41.917Z,1.30
2018-01-20T05:37:09.460Z,4.00
2018-01-20T05:39:36.973Z,5.80
2018-01-20T05:42:04.406Z,1.30
2018-01-20T05:44:31.877Z,1.70
2018-01-20T05:46:59.313Z,0.97
2018-01-20T05:49:26.755Z,1.87
2018-01-20T05:51:54.212Z,1.10
2018-01-20T05:54:21.645Z,1.73
2018-01-20T05:56:49.408Z,1.47
2018-01-20T05:59:16.852Z,1.23
2018-01-20T06:01:44.285Z,1.97
2018-01-20T06:04:11.760Z,2.57
2018-01-20T06:06:39.226Z,1.93
2018-01-20T06:09:06.879Z,8.20
2018-01-20T06:11:34.316Z,1.80
2018-01-20T06:14:01.757Z,1.60
2018-01-20T06:16:29.233Z,1.60
2018-01-20T06:18:56.664Z,3.73
2018-01-20T06:21:24.365Z,4.87
2018-01-20T06:23:51.807Z,3.33
2018-01-20T06:26:19.257Z,6.97
2018-01-20T06:28:46.734Z,8.00
2018-01-20T06:31:14.172Z,8.53
2018-01-20T06:33:41.895Z,2.77
2018-01-20T06:36:09.332Z,4.60
2018-01-20T06:38:36.769Z,4.40
2018-01-20T06:41:04.228Z,2.53
2018-01-20T06:43:31.685Z,3.07
2018-01-20T06:45:59.343Z,2.33
2018-01-20T06:48:26.773Z,2.13
2018-01-20T06:50:54.214Z,2.43
2018-01-20T06:53:21.669Z,2.27
2018-01-20T06:55:49.101Z,3.00
2018-01-20T06:58:16.716Z,3.03
2018-01-20T07:00:44.157Z,3.83
2018-01-20T07:03:11.598Z,2.90
2018-01-20T07:05:39.048Z,1.63
2018-01-20T07:08:06.488Z,2.00
2018-01-20T07:10:34.110Z,4.20
2018-01-20T07:13:01.545Z,1.90
2018-01-20T07:15:28.977Z,2.50
2018-01-20T07:17:56.433Z,1.83
2018-01-20T07:20:23.867Z,2.47
2018-01-20T07:22:51.798Z,3.57
2018-01-20T07:25:19.345Z,2.73
2018-01-20T07:27:46.853Z,2.60
2018-01-20T07:30:14.307Z,3.90
2018-01-20T07:32:41.737Z,2.03
2018-01-20T07:35:09.491Z,1.93
2018-01-20T07:37:36.924Z,2.73
2018-01-20T07:40:10.070Z,3.10
2018-01-20T07:42:37.528Z,1.70
2018-01-20T07:45:04.964Z,2.50
2018-01-20T07:47:32.444Z,2.37
2018-01-20T07:49:59.884Z,4.23
2018-01-20T07:52:27.522Z,2.57
2018-01-20T07:54:54.972Z,3.37
2018-01-20T07:57:22.773Z,2.73
2018-01-20T07:59:50.259Z,1.87
2018-01-20T08:02:17.719Z,2.50
2018-01-20T08:04:45.525Z,4.07
2018-01-20T08:07:12.957Z,3.70
2018-01-20T08:09:40.413Z,3.97
2018-01-20T08:12:07.869Z,3.77
2018-01-20T08:14:35.317Z,4.13
2018-01-20T08:17:02.825Z,4.90
2018-01-20T08:19:30.265Z,3.90
2018-01-20T08:21:57.718Z,2.20
2018-01-20T08:24:25.180Z,4.30
2018-01-20T08:26:52.612Z,2.00
2018-01-20T08:29:20.086Z,2.00
2018-01-20T08:31:47.520Z,8.23
2018-01-20T08:34:14.957Z,2.00
2018-01-20T08:36:42.409Z,4.07
2018-01-20T08:39:09.840Z,1.63
2018-01-20T08:41:37.470Z,3.20
2018-01-20T08:44:04.932Z,3.20
2018-01-20T08:46:32.595Z,4.70
2018-01-20T08:49:00.097Z,4.60
2018-01-20T08:51:27.530Z,4.40
2018-01-20T08:53:56.102Z,2.20
2018-01-20T08:56:23.854Z,2.60
2018-01-20T08:58:51.296Z,3.47
2018-01-20T09:01:18.749Z,3.50
2018-01-20T09:03:46.192Z,4.00
2018-01-20T09:06:14.539Z,3.17
2018-01-20T09:08:41.993Z,3.83
2018-01-20T09:11:09.448Z,9.30
2018-01-20T09:13:36.925Z,7.50
2018-01-20T09:16:04.394Z,4.00
2018-01-20T09:18:32.090Z,4.83
2018-01-20T09:20:59.524Z,3.87
2018-01-20T09:23:26.965Z,4.50
2018-01-20T09:25:54.438Z,3.83
2018-01-20T09:28:21.877Z,4.13
2018-01-20T09:30:49.480Z,3.90
2018-01-20T09:33:16.928Z,4.53
2018-01-20T09:35:44.360Z,3.60
2018-01-20T09:38:11.820Z,4.63
2018-01-20T09:40:39.257Z,3.23
2018-01-20T09:43:06.856Z,7.43
2018-01-20T09:45:34.302Z,4.37
2018-01-20T09:48:01.780Z,4.00
2018-01-20T09:50:29.233Z,3.23
2018-01-20T09:52:56.936Z,4.33
2018-01-20T09:55:24.438Z,2.63
2018-01-20T09:57:51.873Z,6.10
2018-01-20T10:00:19.308Z,3.77
2018-01-20T10:02:46.777Z,4.47
2018-01-20T10:05:14.212Z,8.47
2018-01-20T10:07:41.677Z,2.67
2018-01-20T10:10:09.118Z,4.20
2018-01-20T10:12:36.945Z,4.00
2018-01-20T10:15:04.403Z,3.80
2018-01-20T10:17:31.840Z,3.93
2018-01-20T10:19:59.504Z,2.63
2018-01-20T10:22:26.936Z,8.23
2018-01-20T10:24:54.397Z,10.90
2018-01-20T10:27:21.861Z,7.30
2018-01-20T10:29:49.409Z,5.50
2018-01-20T10:32:17.252Z,9.27
2018-01-20T10:34:44.689Z,3.43
2018-01-20T10:37:12.123Z,3.97
2018-01-20T10:39:39.581Z,4.30
2018-01-20T10:42:07.029Z,2.20
2018-01-20T10:44:34.555Z,3.03
2018-01-20T10:47:01.993Z,2.07
2018-01-20T10:49:29.451Z,2.73
2018-01-20T10:51:56.922Z,1.70
2018-01-20T10:54:24.361Z,2.57
2018-01-20T10:56:51.991Z,2.80
2018-01-20T10:59:19.449Z,8.87
2018-01-20T11:01:46.881Z,1.90
2018-01-20T11:04:14.333Z,2.30
2018-01-20T11:06:41.773Z,4.67
2018-01-20T11:09:09.467Z,6.67
2018-01-20T11:11:36.929Z,1.40
2018-01-20T11:14:04.368Z,1.20
2018-01-20T11:16:31.820Z,2.50
2018-01-20T11:18:59.253Z,1.40
2018-01-20T11:21:26.856Z,4.37
2018-01-20T11:23:54.309Z,2.70
2018-01-20T11:26:24.946Z,3.03
2018-01-20T11:28:52.414Z,2.63
2018-01-20T11:31:19.876Z,9.00
2018-01-20T11:33:47.519Z,3.90
2018-01-20T11:36:14.988Z,2.70
2018-01-20T11:38:42.430Z,3.70
2018-01-20T11:41:09.883Z,2.40
2018-01-20T11:43:37.345Z,23.40
2018-01-20T11:46:05.011Z,3.30
2018-01-20T11:48:32.450Z,5.57
2018-01-20T11:50:59.893Z,15.70
2018-01-20T11:53:27.352Z,2.30
2018-01-20T11:55:54.793Z,6.63
2018-01-20T11:58:22.501Z,4.00
2018-01-20T12:00:49.949Z,8.20
2018-01-20T12:03:17.406Z,14.93
2018-01-20T12:05:45.181Z,1.70
2018-01-20T12:08:12.630Z,2.20
2018-01-20T12:10:40.492Z,1.97
2018-01-20T12:13:07.950Z,1.73
2018-01-20T12:15:35.379Z,4.40
2018-01-20T12:18:02.837Z,1.70
2018-01-20T12:20:30.285Z,0.73
2018-01-20T12:22:57.973Z,0.90
2018-01-20T12:25:25.408Z,0.80
2018-01-20T12:27:52.953Z,1.03
2018-01-20T12:30:20.409Z,0.70
2018-01-20T12:32:47.844Z,0.80
2018-01-20T12:35:15.297Z,3.27
2018-01-20T12:37:42.728Z,5.53
2018-01-20T12:40:10.173Z,3.57
2018-01-20T12:42:37.630Z,3.00
2018-01-20T12:45:05.065Z,2.30
2018-01-20T12:47:32.538Z,2.30
2018-01-20T12:49:59.968Z,1.70
2018-01-20T12:52:27.401Z,1.27
2018-01-20T12:54:54.874Z,1.40
2018-01-20T12:57:22.319Z,1.23
2018-01-20T12:59:50.043Z,0.97
2018-01-20T13:02:17.494Z,1.47
2018-01-20T13:04:44.928Z,3.00
2018-01-20T13:07:12.382Z,3.20
2018-01-20T13:09:39.837Z,1.50
2018-01-20T13:12:07.309Z,1.70
2018-01-20T13:14:34.749Z,1.03
2018-01-20T13:17:02.188Z,1.37
2018-01-20T13:19:29.661Z,0.83
2018-01-20T13:21:57.093Z,0.83
2018-01-20T13:24:24.796Z,1.80
2018-01-20T13:26:52.236Z,0.93
2018-01-20T13:29:19.702Z,3.00
2018-01-20T13:31:47.180Z,4.20
2018-01-20T13:34:14.613Z,1.07
2018-01-20T13:36:42.332Z,6.27
2018-01-20T13:39:09.792Z,0.83
2018-01-20T13:41:37.241Z,1.13
2018-01-20T13:44:04.733Z,8.83
2018-01-20T13:46:32.180Z,1.47
2018-01-20T13:48:59.761Z,1.10
2018-01-20T13:51:27.221Z,1.63
2018-01-20T13:53:54.678Z,2.83
2018-01-20T13:56:22.182Z,0.77
2018-01-20T13:58:49.618Z,1.00
2018-01-20T14:01:17.262Z,1.70
2018-01-20T14:03:44.787Z,1.13
2018-01-20T14:06:12.246Z,0.70
2018-01-20T14:08:39.729Z,3.40
2018-01-20T14:11:07.164Z,0.73
2018-01-20T14:13:34.724Z,1.07
2018-01-20T14:16:02.167Z,1.63
2018-01-20T14:18:29.612Z,1.70
2018-01-20T14:20:57.068Z,1.90
2018-01-20T14:23:24.501Z,2.03
2018-01-20T14:25:52.133Z,1.43
2018-01-20T14:28:19.592Z,1.43
2018-01-20T14:30:47.044Z,2.70
2018-01-20T14:33:14.573Z,1.50
2018-01-20T14:35:42.007Z,1.40
2018-01-20T14:38:09.672Z,2.40
2018-01-20T14:40:37.125Z,1.73
2018-01-20T14:43:04.565Z,2.10
2018-01-20T14:45:32.023Z,1.30
2018-01-20T14:47:59.465Z,3.30
2018-01-20T14:50:26.953Z,1.43
2018-01-20T14:52:54.397Z,1.37
2018-01-20T14:55:21.852Z,1.40
2018-01-20T14:57:49.325Z,1.47
2018-01-20T15:00:16.786Z,1.70
2018-01-20T15:02:44.357Z,1.77
2018-01-20T15:05:11.829Z,2.40
2018-01-20T15:07:39.264Z,2.00
2018-01-20T15:10:06.761Z,1.90
2018-01-20T15:12:34.193Z,1.77
2018-01-20T15:15:01.660Z,1.90
2018-01-20T15:17:29.133Z,2.00
2018-01-20T15:19:56.564Z,2.83
2018-01-20T15:22:24.022Z,2.13
2018-01-20T15:24:51.480Z,1.50
2018-01-20T15:27:18.944Z,2.20
2018-01-20T15:29:46.377Z,1.47
2018-01-20T15:32:13.813Z,2.20
2018-01-20T15:34:41.277Z,1.70
2018-01-20T15:37:08.709Z,1.87
2018-01-20T15:39:36.342Z,1.13
2018-01-20T15:42:03.801Z,1.60
2018-01-20T15:44:31.233Z,1.10
2018-01-20T15:46:58.710Z,1.40
2018-01-20T15:49:26.145Z,2.20
2018-01-20T15:51:53.649Z,1.37
2018-01-20T15:54:21.081Z,1.60
2018-01-20T15:56:48.536Z,2.30
2018-01-20T15:59:16.017Z,2.70
2018-01-20T16:01:43.452Z,2.60
2018-01-20T16:04:10.923Z,1.50
2018-01-20T16:06:38.361Z,1.77
2018-01-20T16:09:05.795Z,2.00
2018-01-20T16:11:33.250Z,1.80
2018-01-20T16:14:00.689Z,2.00
2018-01-20T16:16:28.286Z,2.40
2018-01-20T16:18:55.739Z,1.87
2018-01-20T16:21:23.177Z,2.70
2018-01-20T16:23:50.638Z,2.90
2018-01-20T16:26:18.089Z,2.00
2018-01-20T16:28:45.550Z,3.10
2018-01-20T16:31:13.037Z,2.30
2018-01-20T16:33:40.538Z,1.67
2018-01-20T16:36:07.988Z,2.07
2018-01-20T16:38:35.555Z,1.30
2018-01-20T16:41:02.985Z,1.57
2018-01-20T16:43:30.465Z,2.10
2018-01-20T16:45:59.300Z,2.37
2018-01-20T16:48:26.813Z,1.80
2018-01-20T16:50:54.265Z,2.17
2018-01-20T16:53:21.780Z,1.50
2018-01-20T16:55:49.245Z,1.33
2018-01-20T16:58:16.770Z,1.37
2018-01-20T17:00:44.232Z,1.40
2018-01-20T17:03:11.706Z,10.30
2018-01-20T17:05:39.136Z,2.57
2018-01-20T17:08:06.592Z,4.53
2018-01-20T17:10:34.053Z,6.43
2018-01-20T17:13:01.505Z,5.67
2018-01-20T17:15:28.969Z,10.67
2018-01-20T17:17:56.694Z,6.37
2018-01-20T17:20:24.263Z,1.90
2018-01-20T17:22:51.704Z,2.07
2018-01-20T17:25:19.325Z,1.93
2018-01-20T17:27:46.760Z,1.37
2018-01-20T17:30:14.197Z,1.80
2018-01-20T17:32:41.997Z,1.53
2018-01-20T17:35:09.458Z,1.30
2018-01-20T17:37:36.888Z,1.00
2018-01-20T17:40:04.528Z,1.13
2018-01-20T17:42:31.956Z,0.90
2018-01-20T17:44:59.453Z,1.27
2018-01-20T17:47:27.247Z,1.43
2018-01-20T17:49:54.682Z,0.93
2018-01-20T17:52:22.114Z,1.40
2018-01-20T17:54:49.868Z,1.50
2018-01-20T17:57:17.314Z,1.40
2018-01-20T17:59:44.787Z,1.70
2018-01-20T18:02:12.556Z,1.83
2018-01-20T18:04:40.010Z,1.03
2018-01-20T18:07:07.446Z,1.23
2018-01-20T18:09:35.232Z,1.10
2018-01-20T18:12:02.676Z,1.20
2018-01-20T18:14:30.109Z,1.30
2018-01-20T18:16:57.749Z,1.37
2018-01-20T18:19:25.237Z,2.43
2018-01-20T18:21:52.678Z,3.77
2018-01-20T18:24:21.360Z,4.30
2018-01-20T18:26:48.824Z,4.30
2018-01-20T18:29:16.264Z,5.90
2018-01-20T18:31:43.749Z,9.93
2018-01-20T18:34:11.201Z,6.60
2018-01-20T18:36:38.682Z,6.77
2018-01-20T18:39:06.164Z,6.30
2018-01-20T18:41:33.638Z,7.23
2018-01-20T18:44:01.106Z,7.40
2018-01-20T18:46:28.583Z,8.80
2018-01-20T18:48:56.126Z,7.60
2018-01-20T18:51:23.597Z,6.80
2018-01-20T18:53:51.037Z,5.30
2018-01-20T18:56:18.953Z,5.13
2018-01-20T18:58:46.390Z,4.50
2018-01-20T19:01:13.871Z,4.53
2018-01-20T19:03:41.425Z,5.67
2018-01-20T19:06:08.966Z,6.03
2018-01-20T19:08:36.445Z,4.37
2018-01-20T19:11:03.880Z,4.70
2018-01-20T19:13:31.340Z,4.23
2018-01-20T19:15:58.890Z,5.17
2018-01-20T19:18:26.413Z,6.10
2018-01-20T19:20:54.122Z,5.87
2018-01-20T19:23:21.754Z,4.60
2018-01-20T19:25:49.240Z,4.80
2018-01-20T19:28:16.788Z,4.90
2018-01-20T19:30:44.228Z,5.30
2018-01-20T19:33:12.118Z,5.50
2018-01-20T19:35:39.582Z,5.90
2018-01-20T19:38:07.020Z,6.03
2018-01-20T19:40:34.513Z,6.17
2018-01-20T19:43:02.037Z,6.07
2018-01-20T19:45:29.586Z,6.37
2018-01-20T19:47:57.027Z,7.50
2018-01-20T19:50:24.481Z,7.07
2018-01-20T19:52:51.934Z,7.00
2018-01-20T19:55:19.439Z,8.07
2018-01-20T19:57:46.933Z,8.13
2018-01-20T20:00:14.422Z,13.00
2018-01-20T20:02:41.907Z,11.33
2018-01-20T20:05:09.430Z,12.33
2018-01-20T20:07:36.865Z,8.67
2018-01-20T20:10:04.573Z,7.93
2018-01-20T20:12:32.081Z,8.13
2018-01-20T20:14:59.531Z,10.07
2018-01-20T20:17:27.030Z,8.50
2018-01-20T20:19:54.501Z,8.30
2018-01-20T20:22:22.148Z,11.07
2018-01-20T20:24:49.656Z,10.50
2018-01-20T20:27:17.105Z,10.20
2018-01-20T20:29:44.617Z,11.57
2018-01-20T20:32:12.078Z,12.93
2018-01-20T20:34:39.719Z,14.17
2018-01-20T20:37:07.156Z,17.70
2018-01-20T20:39:34.597Z,22.70
2018-01-20T20:42:02.097Z,19.80
2018-01-20T20:44:29.545Z,11.33
2018-01-20T20:46:57.012Z,15.00
2018-01-20T20:49:24.453Z,21.37
2018-01-20T20:51:51.896Z,10.97
2018-01-20T20:54:19.360Z,15.20
2018-01-20T20:56:46.829Z,15.03
2018-01-20T20:59:14.325Z,12.87
2018-01-20T21:01:41.777Z,12.73
2018-01-20T21:04:09.228Z,11.20
2018-01-20T21:06:36.684Z,10.83
2018-01-20T21:09:04.137Z,17.93
2018-01-20T21:11:31.790Z,12.10
2018-01-20T21:13:59.229Z,16.00
2018-01-20T21:16:26.685Z,13.23
2018-01-20T21:18:54.149Z,19.27
2018-01-20T21:21:21.599Z,13.30
2018-01-20T21:23:49.080Z,20.10
2018-01-20T21:26:16.669Z,11.30
2018-01-20T21:28:44.120Z,12.70
2018-01-20T21:31:11.588Z,11.97
2018-01-20T21:33:39.122Z,14.20
2018-01-20T21:36:06.740Z,12.90
2018-01-20T21:38:34.187Z,13.83
2018-01-20T21:41:01.651Z,13.20
2018-01-20T21:43:29.114Z,14.07
2018-01-20T21:45:56.572Z,13.77
2018-01-20T21:48:24.051Z,16.57
2018-01-20T21:50:51.494Z,13.63
2018-01-20T21:53:18.945Z,16.63
2018-01-20T21:55:46.409Z,12.63
2018-01-20T21:58:13.873Z,23.13
2018-01-20T22:00:41.492Z,11.83
2018-01-20T22:03:08.938Z,15.63
2018-01-20T22:05:36.381Z,15.03
2018-01-20T22:08:03.857Z,15.80
2018-01-20T22:10:31.297Z,12.93
2018-01-20T22:12:58.917Z,17.30
2018-01-20T22:15:26.356Z,15.53
2018-01-20T22:17:53.801Z,16.43
2018-01-20T22:20:21.297Z,17.43
2018-01-20T22:22:48.740Z,18.00
2018-01-20T22:25:16.220Z,18.83
2018-01-20T22:27:43.666Z,22.67
2018-01-20T22:30:11.114Z,18.70
2018-01-20T22:32:38.577Z,13.00
2018-01-20T22:35:06.017Z,14.40
2018-01-20T22:37:33.882Z,17.43
2018-01-20T22:40:01.393Z,17.53
2018-01-20T22:42:28.845Z,17.53
2018-01-20T22:44:56.310Z,17.17
2018-01-20T22:47:23.762Z,16.10
2018-01-20T22:49:51.269Z,19.53
2018-01-20T22:52:18.717Z,15.97
2018-01-20T22:54:46.171Z,15.93
2018-01-20T22:57:13.645Z,21.63
2018-01-20T22:59:41.089Z,18.17
2018-01-20T23:02:08.550Z,21.23
2018-01-20T23:04:35.992Z,19.33
2018-01-20T23:09:37.208Z,17.23
2018-01-20T23:12:04.650Z,15.70
2018-01-20T23:14:32.274Z,17.30
2018-01-20T23:16:59.717Z,18.40
2018-01-20T23:19:27.172Z,20.90
2018-01-20T23:21:54.644Z,18.17
2018-01-20T23:24:22.092Z,15.20
2018-01-20T23:26:49.658Z,15.97
2018-01-20T23:29:17.140Z,15.70
2018-01-20T23:31:44.641Z,22.23
2018-01-20T23:34:12.105Z,13.10
2018-01-20T23:36:39.547Z,14.20
2018-01-20T23:39:07.188Z,16.43
2018-01-20T23:41:34.648Z,15.93
2018-01-20T23:44:02.093Z,13.47
2018-01-20T23:46:29.578Z,17.13
2018-01-20T23:48:57.034Z,20.90
2018-01-20T23:51:24.837Z,17.73
2018-01-20T23:53:52.305Z,19.83
2018-01-20T23:56:20.314Z,19.23
2018-01-20T23:58:47.816Z,21.67
